Time;durP1;ratioP1;P1;durP2;ratioP2;P2;SDS_P1;SDS_P2;PMS_P1;PMS_P2;Temp;Humidity;BMP_temperature;BMP_pressure;BME280_temperature;BME280_humidity;BME280_pressure;Samples;Min_cycle;Max_cycle;Signal;HPM_P1;HPM_P2
2022/12/25 09:55:40;;;;;;;10.80;8.77;;;;;;;9.00;100.00;98853.66;5143801;27;20570;-90
2022/12/25 09:58:12;;;;;;;9.10;8.20;;;;;;;9.74;100.00;98882.00;5092824;28;39175;-91
2022/12/25 10:00:43;;;;;;;9.03;7.43;;;;;;;10.46;100.00;98928.00;5092797;28;41941;-89
2022/12/25 10:03:24;;;;;;;8.47;7.57;;;;;;;10.69;100.00;98932.75;5097286;28;43692;-88
2022/12/25 10:06:13;;;;;;;7.93;6.47;;;;;;;10.90;100.00;98955.25;5096049;28;41234;-88
2022/12/25 10:09:06;;;;;;;7.93;6.40;;;;;;;11.18;100.00;98957.03;5096823;28;40338;-88
2022/12/25 10:11:50;;;;;;;7.47;6.77;;;;;;;11.43;100.00;98958.97;5091236;28;42856;-89
2022/12/25 10:14:28;;;;;;;7.70;6.30;;;;;;;11.61;100.00;98965.75;5098819;28;42870;-89
2022/12/25 10:17:07;;;;;;;7.13;6.43;;;;;;;11.69;100.00;98944.88;5092634;28;42094;-90
2022/12/25 10:19:43;;;;;;;8.30;6.57;;;;;;;11.74;100.00;98936.63;5092405;28;38771;-90
2022/12/25 10:22:16;;;;;;;7.33;6.57;;;;;;;11.96;100.00;98967.91;5092285;28;40890;-89
2022/12/25 10:24:49;;;;;;;6.47;5.77;;;;;;;11.76;100.00;98932.91;5091561;28;41412;-89
2022/12/25 10:27:26;;;;;;;6.87;5.53;;;;;;;12.06;100.00;98953.06;5091703;28;43382;-90
2022/12/25 10:29:54;;;;;;;6.67;5.97;;;;;;;12.02;100.00;98936.50;5091620;28;38725;-89
2022/12/25 10:32:22;;;;;;;6.43;5.50;;;;;;;12.19;100.00;98924.75;5091906;28;40990;-90
2022/12/25 10:34:51;;;;;;;9.27;6.97;;;;;;;12.33;99.02;98929.13;5091821;28;41493;-89
2022/12/25 10:37:19;;;;;;;7.63;6.93;;;;;;;12.20;98.23;98854.75;5091977;28;41169;-90
2022/12/25 10:39:47;;;;;;;7.17;6.47;;;;;;;12.78;97.42;98904.66;5091425;28;40171;-90
2022/12/25 10:42:28;;;;;;;9.37;7.33;;;;;;;13.26;94.60;98902.97;5093031;28;40349;-90
2022/12/25 10:44:57;;;;;;;7.20;6.37;;;;;;;13.28;92.80;98845.22;5103051;28;41780;-88
2022/12/25 10:47:28;;;;;;;7.17;6.43;;;;;;;13.43;91.41;98855.69;5109253;28;40734;-89
2022/12/25 10:49:57;;;;;;;9.03;6.83;;;;;;;13.79;90.72;98890.19;5108109;28;38738;-88
2022/12/25 10:52:27;;;;;;;7.97;6.63;;;;;;;13.87;88.83;98874.47;5107301;28;41738;-88
2022/12/25 10:54:55;;;;;;;7.70;6.97;;;;;;;14.09;88.77;98880.84;5104687;28;44042;-87
2022/12/25 10:57:26;;;;;;;7.97;6.30;;;;;;;14.25;86.43;98873.38;5098665;28;42444;-88
2022/12/25 10:59:56;;;;;;;7.30;6.60;;;;;;;14.52;83.33;98894.41;5093177;28;38959;-88
2022/12/25 11:02:26;;;;;;;6.83;6.23;;;;;;;14.63;82.01;98884.59;5093749;28;42131;-89
2022/12/25 11:05:01;;;;;;;7.83;7.07;;;;;;;14.74;82.77;98870.41;5090520;28;41874;-88
2022/12/25 11:07:29;;;;;;;7.60;6.80;;;;;;;14.73;80.59;98858.91;5079724;28;40948;-88
2022/12/25 11:10:02;;;;;;;9.10;7.47;;;;;;;14.77;80.20;98853.31;5077323;28;40304;-89
2022/12/25 11:12:36;;;;;;;7.00;6.30;;;;;;;14.77;80.38;98869.31;5077399;28;40917;-89
2022/12/25 11:15:06;;;;;;;6.97;6.33;;;;;;;14.74;79.84;98871.25;5077444;28;43179;-88
2022/12/25 11:17:36;;;;;;;6.63;5.97;;;;;;;14.65;80.50;98841.81;5077706;28;42083;-89
2022/12/25 11:20:03;;;;;;;7.70;6.60;;;;;;;14.65;81.02;98825.84;5077188;28;40258;-89
2022/12/25 11:22:31;;;;;;;7.10;6.33;;;;;;;14.48;80.46;98820.97;5077287;28;40542;-89
2022/12/25 11:25:11;;;;;;;6.83;6.17;;;;;;;14.60;80.35;98842.19;5077459;28;41623;-89
2022/12/25 11:27:43;;;;;;;6.90;6.13;;;;;;;14.62;80.94;98834.91;5077645;28;40956;-89
2022/12/25 11:30:15;;;;;;;6.93;6.33;;;;;;;14.50;78.11;98825.22;5077068;28;40230;-88
2022/12/25 11:32:46;;;;;;;6.80;6.20;;;;;;;14.16;79.34;98762.22;5077502;28;41257;-89
2022/12/25 11:35:17;;;;;;;6.40;5.90;;;;;;;14.34;79.04;98798.91;5077017;28;41876;-89
2022/12/25 11:37:48;;;;;;;6.10;5.50;;;;;;;14.47;79.87;98817.47;5077564;28;41344;-88
2022/12/25 11:40:21;;;;;;;5.70;5.20;;;;;;;14.45;79.72;98803.44;5077548;28;38971;-89
2022/12/25 11:42:53;;;;;;;6.03;5.40;;;;;;;14.56;80.01;98800.78;5078204;28;41304;-89
2022/12/25 11:45:26;;;;;;;5.83;5.33;;;;;;;14.44;79.95;98772.44;5077885;28;43621;-89
2022/12/25 11:47:58;;;;;;;6.17;5.57;;;;;;;14.48;80.05;98773.88;5077878;28;41841;-90
2022/12/25 11:50:30;;;;;;;6.67;5.97;;;;;;;14.48;79.93;98776.53;5077885;28;38866;-89
2022/12/25 11:53:02;;;;;;;6.13;5.63;;;;;;;14.38;80.41;98746.22;5077862;28;40605;-88
2022/12/25 11:55:39;;;;;;;5.80;5.20;;;;;;;14.66;79.98;98799.06;5077272;28;42748;-90
2022/12/25 11:58:18;;;;;;;5.40;4.90;;;;;;;14.60;80.34;98788.03;5076650;28;42587;-89
2022/12/25 12:00:48;;;;;;;5.90;5.40;;;;;;;14.52;80.64;98790.47;5077646;28;39309;-90
2022/12/25 12:03:20;;;;;;;5.47;4.97;;;;;;;14.25;81.15;98745.50;5076662;28;41779;-90
2022/12/25 12:05:53;;;;;;;5.63;5.13;;;;;;;14.56;80.66;98791.94;5076957;28;43789;-87
2022/12/25 12:08:21;;;;;;;6.57;5.57;;;;;;;14.36;81.10;98761.47;5077145;28;41258;-88
2022/12/25 12:11:14;;;;;;;5.17;4.67;;;;;;;14.30;81.02;98738.00;5076937;28;39666;-89
2022/12/25 12:13:57;;;;;;;4.87;4.40;;;;;;;14.66;81.00;98776.88;5076604;28;41904;-88
2022/12/25 12:16:25;;;;;;;5.00;4.50;;;;;;;14.78;80.08;98764.38;5076764;28;42908;-87
2022/12/25 12:18:53;;;;;;;6.00;5.40;;;;;;;14.64;78.61;98750.34;5075729;28;40972;-89
2022/12/25 12:21:23;;;;;;;6.20;5.60;;;;;;;14.63;77.25;98761.97;5081448;28;41594;-87
2022/12/25 12:23:55;;;;;;;5.43;4.93;;;;;;;14.55;78.36;98740.44;5083028;28;41756;-87
2022/12/25 12:26:25;;;;;;;4.83;4.43;;;;;;;14.47;78.42;98739.34;5095078;28;43332;-86
2022/12/25 12:28:57;;;;;;;5.60;5.07;;;;;;;14.42;78.96;98742.41;5076475;28;42261;-89
2022/12/25 12:31:38;;;;;;;4.83;4.43;;;;;;;14.60;79.54;98761.38;5076892;28;39581;-87
2022/12/25 12:34:06;;;;;;;7.17;5.17;;;;;;;14.52;79.12;98726.50;5076334;28;42704;-87
2022/12/25 12:37:05;;;;;;;5.93;5.10;;;;;;;14.78;78.94;98724.41;5076448;28;42079;-90
2022/12/25 12:39:38;;;;;;;5.27;4.77;;;;;;;14.64;77.40;98675.72;5073490;28;43245;-89
2022/12/25 12:42:13;;;;;;;5.53;4.60;;;;;;;14.87;76.94;98720.97;5076589;28;39276;-89
2022/12/25 12:44:45;;;;;;;5.20;4.70;;;;;;;14.51;77.29;98667.03;5076589;28;40490;-92
2022/12/25 12:47:32;;;;;;;5.40;4.90;;;;;;;14.87;77.24;98715.63;5076622;28;44268;-90
2022/12/25 12:50:06;;;;;;;5.27;4.53;;;;;;;14.98;76.94;98708.44;5076766;28;41935;-91
2022/12/25 12:52:37;;;;;;;4.73;4.33;;;;;;;15.23;76.75;98728.59;5077261;28;39950;-89
2022/12/25 12:55:11;;;;;;;6.20;4.67;;;;;;;15.40;76.30;98714.69;5076294;28;40917;-92
2022/12/25 12:57:40;;;;;;;4.90;4.23;;;;;;;15.53;74.35;98693.13;5076347;28;43362;-90
2022/12/25 13:00:17;;;;;;;4.20;3.80;;;;;;;15.62;74.76;98676.38;5076155;28;43704;-89
2022/12/25 13:03:06;;;;;;;4.57;4.07;;;;;;;15.90;73.67;98722.91;5077220;28;38927;-90
2022/12/25 13:05:39;;;;;;;4.47;3.60;;;;;;;15.68;74.09;98670.50;5076561;28;42050;-91
2022/12/25 13:08:18;;;;;;;4.77;4.37;;;;;;;15.56;72.92;98676.06;5076838;28;41905;-88
2022/12/25 13:10:49;;;;;;;3.73;3.10;;;;;;;15.33;73.79;98654.78;5076035;28;42313;-88
2022/12/25 13:13:22;;;;;;;3.90;3.50;;;;;;;15.26;74.24;98658.97;5076001;28;39774;-88
2022/12/25 13:15:54;;;;;;;3.53;3.27;;;;;;;15.11;74.48;98665.59;5076147;28;40722;-87
2022/12/25 13:18:22;;;;;;;4.10;3.53;;;;;;;14.90;75.30;98651.41;5076161;28;42011;-88
2022/12/25 13:20:55;;;;;;;4.23;3.40;;;;;;;15.06;74.93;98683.81;5075879;28;42155;-89
2022/12/25 13:23:27;;;;;;;4.17;3.73;;;;;;;14.82;74.32;98653.88;5077024;28;38952;-90
2022/12/25 13:25:56;;;;;;;4.73;3.30;;;;;;;14.95;74.59;98676.72;5076587;28;41784;-90
2022/12/25 13:28:26;;;;;;;4.53;3.77;;;;;;;14.72;74.58;98649.28;5075703;28;42899;-89
2022/12/25 13:31:02;;;;;;;3.93;3.60;;;;;;;14.87;75.04;98695.16;5077118;28;41223;-88
2022/12/25 13:33:30;;;;;;;4.93;4.43;;;;;;;14.87;75.14;98707.63;5109476;28;39215;-89
2022/12/25 13:35:58;;;;;;;4.33;3.93;;;;;;;14.50;75.85;98670.66;5076031;28;41453;-90
2022/12/25 13:38:28;;;;;;;3.83;3.43;;;;;;;14.49;75.94;98695.63;5075473;28;42069;-89
2022/12/25 13:43:44;;;;;;;4.63;3.83;;;;;;;14.07;77.26;98667.09;5076775;28;39793;-89
2022/12/25 13:46:15;;;;;;;4.70;4.30;;;;;;;13.96;77.68;98666.13;5075712;28;40676;-89
2022/12/25 13:48:43;;;;;;;4.03;3.63;;;;;;;14.03;78.11;98693.09;5075884;28;42686;-90
2022/12/25 13:51:17;;;;;;;4.47;3.50;;;;;;;13.57;78.51;98632.00;5076931;28;42304;-90
2022/12/25 13:53:45;;;;;;;4.47;3.50;;;;;;;13.64;78.72;98644.69;5074630;28;39128;-89
2022/12/25 13:56:16;;;;;;;3.73;3.20;;;;;;;13.75;79.16;98672.28;5074905;28;42754;-89
2022/12/25 13:59:06;;;;;;;3.97;3.13;;;;;;;13.39;79.49;98623.63;5075540;28;42852;-90
2022/12/25 14:01:42;;;;;;;3.60;3.30;;;;;;;13.70;79.68;98696.59;5075903;28;41423;-89
2022/12/25 14:04:15;;;;;;;2.93;2.73;;;;;;;13.34;79.93;98646.25;5074879;28;39000;-88
2022/12/25 14:06:42;;;;;;;4.27;3.10;;;;;;;13.72;79.82;98694.69;5075406;28;40765;-88
2022/12/25 14:09:13;;;;;;;3.57;3.27;;;;;;;13.70;79.88;98672.66;5074923;28;43035;-91
2022/12/25 14:11:49;;;;;;;3.80;2.80;;;;;;;13.79;79.59;98666.59;5075895;28;42565;-90
2022/12/25 14:14:20;;;;;;;3.50;3.20;;;;;;;13.95;79.31;98674.25;5075219;28;38939;-88
2022/12/25 14:16:53;;;;;;;3.37;3.03;;;;;;;14.05;79.45;98691.19;5075585;28;41592;-89
2022/12/25 14:19:25;;;;;;;3.00;2.70;;;;;;;13.74;79.62;98649.28;5074751;28;41772;-87
2022/12/25 14:21:59;;;;;;;3.83;3.40;;;;;;;13.82;79.36;98676.16;5075452;28;40980;-87
2022/12/25 14:24:29;;;;;;;3.10;2.87;;;;;;;13.89;80.00;98696.00;5071876;28;41039;-85
2022/12/25 14:26:59;;;;;;;3.80;2.97;;;;;;;13.77;80.06;98676.53;5074099;28;41727;-85
2022/12/25 14:29:31;;;;;;;3.17;2.60;;;;;;;13.72;80.48;98667.22;5072847;28;43706;-85
2022/12/25 14:32:04;;;;;;;3.47;3.17;;;;;;;13.70;80.51;98677.97;5073980;28;41037;-86
2022/12/25 14:34:34;;;;;;;3.00;2.70;;;;;;;13.63;80.58;98666.09;5073424;28;39071;-85
2022/12/25 14:37:04;;;;;;;3.07;2.77;;;;;;;13.64;80.86;98670.47;5074418;28;41615;-85
2022/12/25 14:39:34;;;;;;;3.03;2.73;;;;;;;13.50;81.00;98668.03;5072893;28;41491;-84
2022/12/25 14:42:11;;;;;;;3.07;2.77;;;;;;;13.53;81.30;98686.41;5076865;28;42631;-86
2022/12/25 14:44:40;;;;;;;3.07;2.47;;;;;;;13.46;81.46;98682.53;5076769;28;38806;-85
2022/12/25 14:47:19;;;;;;;3.60;2.60;;;;;;;13.42;81.58;98689.91;5078318;28;41960;-83
2022/12/25 14:49:47;;;;;;;2.60;2.40;;;;;;;13.36;81.68;98686.84;5082525;28;43809;-86
2022/12/25 14:52:21;;;;;;;4.07;3.10;;;;;;;13.33;81.89;98692.44;5098712;28;43701;-85
2022/12/25 14:54:53;;;;;;;2.20;2.00;;;;;;;13.28;82.16;98696.28;5072820;28;39974;-85
2022/12/25 14:57:28;;;;;;;3.00;2.70;;;;;;;13.14;82.42;98699.13;5077561;28;40583;-85
2022/12/25 14:59:58;;;;;;;2.90;2.60;;;;;;;13.06;82.17;98693.50;5075204;28;43535;-85
2022/12/25 15:02:37;;;;;;;3.27;2.87;;;;;;;13.09;82.50;98700.41;5076937;28;42124;-86
2022/12/25 15:05:05;;;;;;;2.40;2.20;;;;;;;12.90;82.65;98684.97;5076374;28;38651;-84
2022/12/25 15:07:33;;;;;;;4.97;2.97;;;;;;;12.86;83.06;98696.78;5077225;28;40853;-85
2022/12/25 15:10:01;;;;;;;3.20;2.87;;;;;;;12.76;83.00;98687.81;5075381;28;41983;-85
2022/12/25 15:12:29;;;;;;;3.90;3.43;;;;;;;12.65;83.54;98674.47;5076963;28;43323;-85
2022/12/25 15:14:56;;;;;;;4.20;3.80;;;;;;;12.56;83.58;98687.50;5075432;28;39418;-86
2022/12/25 15:17:28;;;;;;;4.83;4.30;;;;;;;12.57;83.91;98705.13;5075863;28;42176;-84
2022/12/25 15:20:00;;;;;;;6.50;5.33;;;;;;;12.45;84.02;98697.19;5075912;28;41575;-85
2022/12/25 15:22:27;;;;;;;5.60;5.07;;;;;;;12.32;84.14;98681.31;5076460;28;41289;-85
2022/12/25 15:24:55;;;;;;;5.03;4.20;;;;;;;12.39;84.08;98710.91;5075421;28;39527;-85
2022/12/25 15:27:22;;;;;;;5.13;4.50;;;;;;;12.25;84.47;98701.28;5076706;28;41057;-84
2022/12/25 15:29:50;;;;;;;5.17;3.93;;;;;;;12.17;84.43;98695.69;5075793;28;43378;-87
2022/12/25 15:32:20;;;;;;;4.97;4.47;;;;;;;11.97;85.14;98667.06;5075886;28;42910;-85
2022/12/25 15:34:50;;;;;;;6.30;5.67;;;;;;;12.04;85.51;98679.78;5092259;28;40014;-86
2022/12/25 15:37:18;;;;;;;8.07;6.57;;;;;;;12.08;86.06;98685.72;5076035;28;41940;-87
2022/12/25 15:39:46;;;;;;;9.77;6.67;;;;;;;12.00;86.91;98672.13;5076073;28;43277;-86
2022/12/25 15:42:15;;;;;;;9.70;6.37;;;;;;;11.91;87.67;98659.53;5075897;28;42225;-86
2022/12/25 15:44:44;;;;;;;8.97;7.17;;;;;;;11.87;87.55;98672.16;5071875;28;38989;-86
2022/12/25 15:47:12;;;;;;;7.37;6.67;;;;;;;11.74;88.18;98661.56;5075841;28;41379;-86
2022/12/25 15:49:40;;;;;;;9.27;7.63;;;;;;;11.68;88.34;98651.34;5075436;28;42025;-85
2022/12/25 15:52:12;;;;;;;8.53;7.40;;;;;;;11.56;88.45;98641.59;5075517;28;41407;-86
2022/12/25 15:54:40;;;;;;;8.07;6.70;;;;;;;11.40;88.53;98627.72;5075277;28;40001;-86
2022/12/25 15:57:16;;;;;;;6.53;5.93;;;;;;;11.69;88.61;98684.03;5075541;28;44094;-85
2022/12/25 15:59:43;;;;;;;6.50;5.77;;;;;;;11.58;88.63;98652.13;5075374;28;41454;-86
2022/12/25 16:02:15;;;;;;;6.07;5.43;;;;;;;11.30;88.44;98602.78;5075522;28;41122;-86
2022/12/25 16:04:43;;;;;;;7.10;6.27;;;;;;;11.46;88.99;98640.56;5075363;28;39018;-85
2022/12/25 16:07:15;;;;;;;6.73;6.03;;;;;;;11.14;88.78;98593.25;5091932;28;40469;-86
2022/12/25 16:09:44;;;;;;;6.50;5.80;;;;;;;11.42;88.83;98645.22;5074239;28;42025;-85
2022/12/25 16:12:12;;;;;;;7.23;5.53;;;;;;;11.08;88.68;98599.00;5075035;28;42173;-86
2022/12/25 16:14:39;;;;;;;5.60;5.10;;;;;;;11.36;88.45;98652.75;5074791;28;39921;-85
2022/12/25 16:17:08;;;;;;;7.47;5.70;;;;;;;11.30;88.46;98655.81;5075064;28;43030;-86
2022/12/25 16:19:35;;;;;;;6.37;5.40;;;;;;;11.19;88.44;98647.75;5074829;28;43186;-85
2022/12/25 16:22:11;;;;;;;5.27;4.70;;;;;;;11.19;88.48;98653.06;5073874;28;42702;-85
2022/12/25 16:24:40;;;;;;;5.47;4.97;;;;;;;11.04;88.27;98655.78;5092006;28;40308;-85
2022/12/25 16:27:08;;;;;;;6.40;4.87;;;;;;;11.10;88.38;98670.44;5074956;28;41793;-85
2022/12/25 16:29:35;;;;;;;5.07;4.67;;;;;;;10.96;88.40;98652.81;5073695;28;41677;-85
2022/12/25 16:32:03;;;;;;;5.97;5.03;;;;;;;11.03;88.44;98669.97;5074674;28;41167;-84
2022/12/25 16:34:30;;;;;;;5.20;4.70;;;;;;;10.95;88.42;98660.88;5074139;28;41026;-87
2022/12/25 16:36:58;;;;;;;5.33;4.83;;;;;;;10.92;88.71;98655.75;5056933;28;41913;-87
2022/12/25 16:39:26;;;;;;;5.60;5.07;;;;;;;10.59;88.73;98611.19;5091343;28;41893;-85
2022/12/25 16:41:55;;;;;;;6.57;4.67;;;;;;;10.94;88.48;98667.09;5074372;28;40756;-85
2022/12/25 16:44:22;;;;;;;5.10;4.60;;;;;;;11.00;88.69;98683.44;5073494;28;39296;-85
2022/12/25 16:46:50;;;;;;;4.97;4.47;;;;;;;10.93;88.56;98674.22;5074695;28;40321;-86
2022/12/25 16:49:18;;;;;;;7.57;5.10;;;;;;;11.02;88.63;98692.13;5074722;28;42809;-85
2022/12/25 16:51:46;;;;;;;5.40;4.90;;;;;;;10.91;88.54;98676.09;5074781;28;41361;-85
2022/12/25 16:54:14;;;;;;;5.47;4.97;;;;;;;10.92;88.72;98676.97;5073852;28;38719;-84
2022/12/25 16:56:41;;;;;;;6.87;6.20;;;;;;;10.83;88.33;98657.25;5074715;28;40723;-85
